createdAt,value
2018-12-11T00:01:33.243Z,101913.49
2018-12-11T00:04:04.506Z,101916.99
2018-12-11T00:06:34.462Z,101922.84
2018-12-11T00:09:06.685Z,101923.34
2018-12-11T00:11:45.663Z,101919.11
2018-12-11T00:14:17.750Z,101911.31
2018-12-11T00:16:49.571Z,101911.67
2018-12-11T00:19:28.164Z,101910.82
2018-12-11T00:22:05.998Z,101916.47
2018-12-11T00:24:38.095Z,101915.28
2018-12-11T00:27:17.722Z,101921.78
2018-12-11T00:29:50.133Z,101906.12
2018-12-11T00:32:31.443Z,101911.30
2018-12-11T00:35:03.118Z,101910.82
2018-12-11T00:37:40.907Z,101910.48
2018-12-11T00:40:19.057Z,101909.62
2018-12-11T00:42:57.136Z,101901.27
2018-12-11T00:45:28.397Z,101902.56
2018-12-11T00:48:07.918Z,101900.12
2018-12-11T00:50:46.976Z,101901.95
2018-12-11T00:53:26.098Z,101903.31
2018-12-11T00:56:04.918Z,101902.64
2018-12-11T00:58:43.722Z,101904.95
2018-12-11T01:01:15.048Z,101900.96
2018-12-11T01:03:46.177Z,101900.12
2018-12-11T01:06:25.204Z,101901.27
2018-12-11T01:11:57.735Z,101906.47
2018-12-11T01:14:29.129Z,101916.47
2018-12-11T01:17:07.681Z,101910.99
2018-12-11T01:19:45.552Z,101907.44
2018-12-11T01:22:24.226Z,101910.64
2018-12-11T01:24:58.085Z,101914.83
2018-12-11T01:27:29.226Z,101916.84
2018-12-11T01:30:07.904Z,101912.66
2018-12-11T01:32:39.934Z,101912.30
2018-12-11T01:35:11.670Z,101917.66
2018-12-11T01:37:49.466Z,101920.66
2018-12-11T01:40:20.623Z,101919.67
2018-12-11T01:42:59.101Z,101918.30
2018-12-11T01:45:30.366Z,101917.81
2018-12-11T01:48:01.630Z,101921.82
2018-12-11T01:50:39.474Z,101918.00
2018-12-11T01:53:17.476Z,101926.67
2018-12-11T01:55:48.591Z,101925.54
2018-12-11T01:58:27.262Z,101919.49
2018-12-11T02:00:57.409Z,101921.16
2018-12-11T02:03:29.774Z,101912.64
2018-12-11T02:06:08.410Z,101912.78
2018-12-11T02:08:39.439Z,101916.61
2018-12-11T02:11:18.966Z,101927.35
2018-12-11T02:13:53.001Z,101917.81
2018-12-11T02:16:30.966Z,101920.02
2018-12-11T02:19:05.025Z,101917.64
2018-12-11T02:21:43.826Z,101923.17
2018-12-11T02:24:16.834Z,101929.17
2018-12-11T02:26:56.545Z,101916.34
2018-12-11T02:29:35.460Z,101918.16
2018-12-11T02:32:13.375Z,101922.02
2018-12-11T02:34:44.514Z,101912.95
2018-12-11T02:37:19.434Z,101916.49
2018-12-11T02:39:51.340Z,101916.96
2018-12-11T02:42:21.156Z,101913.98
2018-12-11T02:44:54.165Z,101906.62
2018-12-11T02:47:32.595Z,101912.98
2018-12-11T02:50:11.436Z,101916.34
2018-12-11T02:52:51.374Z,101919.62
2018-12-11T02:55:23.106Z,101925.00
2018-12-11T02:57:59.815Z,101918.33
2018-12-11T03:00:32.284Z,101917.33
2018-12-11T03:03:10.928Z,101914.17
2018-12-11T03:05:44.925Z,101915.06
2018-12-11T03:08:16.071Z,101915.28
2018-12-11T03:10:51.132Z,101917.47
2018-12-11T03:13:25.194Z,101916.61
2018-12-11T03:16:03.009Z,101919.49
2018-12-11T03:18:34.031Z,101919.02
2018-12-11T03:21:05.153Z,101906.64
2018-12-11T03:23:42.967Z,101900.28
2018-12-11T03:26:20.868Z,101894.43
2018-12-11T03:28:58.604Z,101905.95
2018-12-11T03:31:37.324Z,101894.77
2018-12-11T03:34:16.420Z,101894.59
2018-12-11T03:36:54.289Z,101894.25
2018-12-11T03:39:34.757Z,101891.28
2018-12-11T03:42:13.059Z,101890.76
2018-12-11T03:44:44.391Z,101887.06
2018-12-11T03:47:18.301Z,101888.08
2018-12-11T03:49:59.089Z,101895.94
2018-12-11T03:52:30.562Z,101890.44
2018-12-11T03:55:03.648Z,101895.30
2018-12-11T03:57:41.910Z,101903.29
2018-12-11T04:00:19.746Z,101900.78
2018-12-11T04:02:59.544Z,101908.46
2018-12-11T04:05:32.778Z,101902.61
2018-12-11T04:08:11.363Z,101893.58
2018-12-11T04:10:47.323Z,101902.75
2018-12-11T04:13:17.260Z,101900.59
2018-12-11T04:15:51.727Z,101893.61
2018-12-11T04:18:30.576Z,101899.77
2018-12-11T04:21:02.674Z,101902.63
2018-12-11T04:23:42.578Z,101900.30
2018-12-11T04:26:20.529Z,101896.27
2018-12-11T04:28:51.731Z,101896.94
2018-12-11T04:31:26.492Z,101903.46
2018-12-11T04:34:00.427Z,101904.63
2018-12-11T04:36:31.476Z,101906.32
2018-12-11T04:39:09.842Z,101910.82
2018-12-11T04:41:41.132Z,101902.31
2018-12-11T04:44:12.987Z,101900.42
2018-12-11T04:46:43.982Z,101901.95
2018-12-11T04:49:23.514Z,101900.11
2018-12-11T04:51:59.693Z,101908.30
2018-12-11T04:54:31.978Z,101908.44
2018-12-11T04:57:17.372Z,101912.27
2018-12-11T04:59:59.389Z,101903.27
2018-12-11T05:02:39.860Z,101908.73
2018-12-11T05:05:10.620Z,101909.59
2018-12-11T05:10:55.905Z,101909.20
2018-12-11T05:13:35.550Z,101909.42
2018-12-11T05:16:14.290Z,101901.11
2018-12-11T05:18:52.170Z,101910.16
2018-12-11T05:21:31.200Z,101907.95
2018-12-11T05:24:03.529Z,101903.98
2018-12-11T05:26:37.534Z,101901.96
2018-12-11T05:29:15.480Z,101894.94
2018-12-11T05:31:54.620Z,101900.59
2018-12-11T05:34:30.252Z,101896.94
2018-12-11T05:37:09.362Z,101898.30
2018-12-11T05:39:49.268Z,101900.11
2018-12-11T05:42:25.459Z,101889.28
2018-12-11T05:44:56.496Z,101886.20
2018-12-11T05:47:36.257Z,101882.59
2018-12-11T05:50:14.294Z,101882.58
2018-12-11T05:52:52.551Z,101898.58
2018-12-11T05:55:28.408Z,101891.94
2018-12-11T05:58:00.395Z,101900.28
2018-12-11T06:00:41.028Z,101902.75
2018-12-11T06:03:20.130Z,101894.78
2018-12-11T06:05:58.350Z,101897.45
2018-12-11T06:08:30.763Z,101904.94
2018-12-11T06:11:01.719Z,101900.03
2018-12-11T06:13:40.466Z,101908.91
2018-12-11T06:16:19.565Z,101907.27
2018-12-11T06:18:59.127Z,101905.47
2018-12-11T06:21:32.724Z,101906.62
2018-12-11T06:24:05.652Z,101895.27
2018-12-11T06:26:44.778Z,101904.12
2018-12-11T06:32:10.242Z,101907.95
2018-12-11T06:34:50.044Z,101904.08
2018-12-11T06:37:39.210Z,101898.63
2018-12-11T06:40:12.446Z,101899.62
2018-12-11T06:42:52.834Z,101905.63
2018-12-11T06:45:25.570Z,101904.81
2018-12-11T06:47:58.382Z,101907.66
2018-12-11T06:50:36.873Z,101900.95
2018-12-11T06:53:09.740Z,101904.97
2018-12-11T06:55:42.034Z,101907.30
2018-12-11T06:58:20.678Z,101908.29
2018-12-11T07:00:58.413Z,101908.16
2018-12-11T07:03:29.671Z,101908.60
2018-12-11T07:06:03.469Z,101907.13
2018-12-11T07:08:41.577Z,101911.98
2018-12-11T07:11:12.988Z,101910.66
2018-12-11T07:13:46.909Z,101911.66
2018-12-11T07:16:26.182Z,101910.33
2018-12-11T07:19:05.284Z,101911.14
2018-12-11T07:21:45.270Z,101914.31
2018-12-11T07:24:24.196Z,101903.75
2018-12-11T07:26:59.945Z,101901.31
2018-12-11T07:29:30.923Z,101904.66
2018-12-11T07:32:08.697Z,101906.97
2018-12-11T07:34:47.498Z,101903.64
2018-12-11T07:37:20.722Z,101906.97
2018-12-11T07:40:06.926Z,101905.31
2018-12-11T07:42:47.457Z,101909.62
2018-12-11T07:45:25.446Z,101919.52
2018-12-11T07:47:58.663Z,101920.00
2018-12-11T07:50:36.543Z,101914.67
2018-12-11T07:53:08.757Z,101917.64
2018-12-11T07:55:41.518Z,101917.15
2018-12-11T07:58:27.814Z,101915.31
2018-12-11T08:01:01.992Z,101923.98
2018-12-11T08:03:33.172Z,101923.87
2018-12-11T08:08:58.635Z,101920.02
2018-12-11T08:11:36.386Z,101928.52
2018-12-11T08:14:07.797Z,101921.34
2018-12-11T08:16:53.706Z,101923.02
2018-12-11T08:19:24.982Z,101926.86
2018-12-11T08:22:03.488Z,101928.68
2018-12-11T08:24:41.590Z,101928.98
2018-12-11T08:27:14.193Z,101929.18
2018-12-11T08:32:46.861Z,101933.85
2018-12-11T08:35:19.178Z,101930.34
2018-12-11T08:38:00.446Z,101925.95
2018-12-11T08:40:33.320Z,101924.39
2018-12-11T08:43:06.230Z,101921.59
2018-12-11T08:45:38.599Z,101920.29
2018-12-11T08:48:08.546Z,101929.22
2018-12-11T08:50:46.491Z,101931.62
2018-12-11T08:53:25.466Z,101937.47
2018-12-11T08:55:56.709Z,101938.50
2018-12-11T08:58:36.290Z,101929.78
2018-12-11T09:01:10.335Z,101932.96
2018-12-11T09:03:45.126Z,101928.11
2018-12-11T09:06:24.597Z,101937.61
2018-12-11T09:09:04.538Z,101949.69
2018-12-11T09:11:38.451Z,101948.06
2018-12-11T09:14:10.434Z,101951.70
2018-12-11T09:16:49.327Z,101949.34
2018-12-11T09:19:20.587Z,101942.94
2018-12-11T09:22:06.795Z,101938.61
2018-12-11T09:24:42.220Z,101939.89
2018-12-11T09:27:27.595Z,101945.20
2018-12-11T09:30:06.835Z,101946.05
2018-12-11T09:32:44.598Z,101947.32
2018-12-11T09:35:15.869Z,101951.19
2018-12-11T09:37:54.482Z,101950.95
2018-12-11T09:40:32.492Z,101956.40
2018-12-11T09:43:03.921Z,101955.03
2018-12-11T09:45:35.161Z,101954.38
2018-12-11T09:48:15.042Z,101962.86
2018-12-11T09:50:54.058Z,101961.09
2018-12-11T09:53:32.287Z,101961.76
2018-12-11T09:56:12.412Z,101965.39
2018-12-11T09:58:50.204Z,101965.54
2018-12-11T10:01:28.211Z,101967.30
2018-12-11T10:03:59.642Z,101957.55
2018-12-11T10:06:38.400Z,101960.88
2018-12-11T10:09:12.234Z,101961.66
2018-12-11T10:11:51.034Z,101969.34
2018-12-11T10:14:23.330Z,101964.16
2018-12-11T10:17:02.099Z,101970.19
2018-12-11T10:19:41.162Z,101969.16
2018-12-11T10:22:12.402Z,101963.32
2018-12-11T10:24:43.550Z,101960.52
2018-12-11T10:27:14.511Z,101957.59
2018-12-11T10:29:58.979Z,101961.70
2018-12-11T10:32:37.112Z,101963.35
2018-12-11T10:35:11.307Z,101966.30
2018-12-11T10:37:50.075Z,101964.20
2018-12-11T10:40:23.968Z,101961.38
2018-12-11T10:42:55.202Z,101960.77
2018-12-11T10:45:27.145Z,101966.73
2018-12-11T10:47:57.054Z,101964.20
2018-12-11T10:50:29.531Z,101963.44
2018-12-11T10:53:01.922Z,101960.80
2018-12-11T10:55:33.656Z,101967.83
2018-12-11T10:58:05.974Z,101964.31
2018-12-11T11:00:43.933Z,101960.47
2018-12-11T11:03:22.020Z,101964.26
2018-12-11T11:05:54.616Z,101957.66
2018-12-11T11:08:25.794Z,101945.56
2018-12-11T11:11:04.902Z,101948.17
2018-12-11T11:13:42.982Z,101947.12
2018-12-11T11:16:20.988Z,101950.33
2018-12-11T11:18:53.270Z,101953.80
2018-12-11T11:24:19.522Z,101970.52
2018-12-11T11:26:59.160Z,101961.87
2018-12-11T11:29:39.080Z,101953.70
2018-12-11T11:32:18.014Z,101945.78
2018-12-11T11:34:58.721Z,101931.76
2018-12-11T11:37:29.424Z,101931.95
2018-12-11T11:40:03.108Z,101926.66
2018-12-11T11:42:32.876Z,101928.30
2018-12-11T11:45:05.024Z,101926.02
2018-12-11T11:47:43.607Z,101930.88
2018-12-11T11:50:17.153Z,101928.02
2018-12-11T11:52:56.945Z,101931.52
2018-12-11T11:55:29.150Z,101931.19
2018-12-11T11:58:09.775Z,101927.98
2018-12-11T12:00:49.430Z,101928.98
2018-12-11T12:03:27.142Z,101931.22
2018-12-11T12:05:59.445Z,101930.59
2018-12-11T12:08:44.100Z,101927.35
2018-12-11T12:11:13.812Z,101927.25
2018-12-11T12:13:52.699Z,101917.64
2018-12-11T12:16:26.789Z,101922.44
2018-12-11T12:18:58.134Z,101931.70
2018-12-11T12:21:35.868Z,101920.95
2018-12-11T12:24:14.975Z,101929.06
2018-12-11T12:26:54.083Z,101919.73
2018-12-11T12:29:33.050Z,101920.80
2018-12-11T12:32:07.992Z,101933.56
2018-12-11T12:34:40.086Z,101923.27
2018-12-11T12:37:09.808Z,101930.98
2018-12-11T12:39:48.698Z,101929.63
2018-12-11T12:42:27.706Z,101928.73
2018-12-11T12:45:02.755Z,101928.59
2018-12-11T12:47:33.874Z,101930.82
2018-12-11T12:50:07.782Z,101925.00
2018-12-11T12:52:44.466Z,101934.81
2018-12-11T12:55:22.668Z,101933.69
2018-12-11T12:58:00.412Z,101933.91
2018-12-11T13:00:31.663Z,101933.91
2018-12-11T13:03:02.902Z,101934.44
2018-12-11T13:05:34.091Z,101935.37
2018-12-11T13:08:14.687Z,101926.13
2018-12-11T13:10:47.105Z,101929.27
2018-12-11T13:13:26.187Z,101920.88
2018-12-11T13:16:05.138Z,101923.45
2018-12-11T13:18:43.106Z,101919.02
2018-12-11T13:21:22.144Z,101917.00
2018-12-11T13:23:53.283Z,101916.48
2018-12-11T13:26:25.404Z,101916.59
2018-12-11T13:29:03.087Z,101910.72
2018-12-11T13:31:32.621Z,101921.59
2018-12-11T13:34:04.472Z,101918.44
2018-12-11T13:36:42.250Z,101922.06
2018-12-11T13:39:20.667Z,101919.95
2018-12-11T13:41:58.636Z,101916.04
2018-12-11T13:44:37.368Z,101919.39
2018-12-11T13:47:16.264Z,101920.55
2018-12-11T13:49:55.529Z,101914.52
2018-12-11T13:52:27.621Z,101920.50
2018-12-11T13:54:58.668Z,101910.81
2018-12-11T13:57:29.612Z,101902.02
2018-12-11T14:00:07.650Z,101910.92
2018-12-11T14:02:41.785Z,101907.55
2018-12-11T14:05:11.811Z,101907.66
2018-12-11T14:07:46.638Z,101906.58
2018-12-11T14:10:20.546Z,101902.04
2018-12-11T14:12:51.614Z,101906.81
2018-12-11T14:15:24.579Z,101908.44
2018-12-11T14:18:03.391Z,101903.34
2018-12-11T14:20:34.729Z,101901.30
2018-12-11T14:23:14.693Z,101896.40
2018-12-11T14:25:46.893Z,101900.09
2018-12-11T14:28:17.815Z,101897.45
2018-12-11T14:30:59.429Z,101899.92
2018-12-11T14:33:38.604Z,101908.03
2018-12-11T14:36:17.530Z,101906.28
2018-12-11T14:38:51.553Z,101909.15
2018-12-11T14:41:22.901Z,101904.84
2018-12-11T14:44:01.882Z,101904.61
2018-12-11T14:46:40.750Z,101907.10
2018-12-11T14:49:19.512Z,101904.19
2018-12-11T14:51:49.052Z,101914.72
2018-12-11T14:54:21.302Z,101909.19
2018-12-11T14:56:52.351Z,101912.83
2018-12-11T14:59:32.046Z,101908.85
2018-12-11T15:02:11.777Z,101916.76
2018-12-11T15:04:44.184Z,101920.88
2018-12-11T15:07:23.430Z,101920.35
2018-12-11T15:10:00.179Z,101919.80
2018-12-11T15:12:31.220Z,101916.06
2018-12-11T15:15:06.779Z,101916.52
2018-12-11T15:17:40.821Z,101917.72
2018-12-11T15:20:20.200Z,101919.69
2018-12-11T15:22:52.617Z,101925.98
2018-12-11T15:25:23.698Z,101923.27
2018-12-11T15:28:02.342Z,101919.02
2018-12-11T15:30:34.941Z,101915.55
2018-12-11T15:33:08.769Z,101919.47
2018-12-11T15:35:40.850Z,101924.19
2018-12-11T15:38:19.611Z,101919.72
2018-12-11T15:40:58.650Z,101922.74
2018-12-11T15:46:26.218Z,101925.16
2018-12-11T15:49:05.057Z,101929.17
2018-12-11T15:51:37.325Z,101930.03
2018-12-11T15:54:08.026Z,101930.56
2018-12-11T15:56:39.203Z,101929.88
2018-12-11T15:59:10.158Z,101926.96
2018-12-11T16:01:42.044Z,101924.38
2018-12-11T16:04:13.968Z,101926.53
2018-12-11T16:06:52.888Z,101928.59
2018-12-11T16:09:37.111Z,101934.91
2018-12-11T16:12:07.708Z,101934.72
2018-12-11T16:14:38.626Z,101932.69
2018-12-11T16:17:11.629Z,101938.00
2018-12-11T16:19:51.022Z,101940.77
2018-12-11T16:22:23.320Z,101934.50
2018-12-11T16:25:02.140Z,101941.53
2018-12-11T16:27:37.284Z,101934.41
2018-12-11T16:30:16.950Z,101937.34
2018-12-11T16:32:56.598Z,101938.84
2018-12-11T16:35:30.016Z,101941.13
2018-12-11T16:38:02.748Z,101945.93
2018-12-11T16:40:42.480Z,101945.63
2018-12-11T16:43:20.305Z,101943.41
2018-12-11T16:45:52.906Z,101944.00
2018-12-11T16:48:31.972Z,101956.25
2018-12-11T16:51:04.474Z,101952.80
2018-12-11T16:53:43.390Z,101958.71
2018-12-11T16:56:17.672Z,101955.86
2018-12-11T16:58:49.814Z,101950.68
2018-12-11T17:01:30.437Z,101958.87
2018-12-11T17:04:03.806Z,101960.22
2018-12-11T17:06:34.482Z,101965.73
2018-12-11T17:09:13.838Z,101966.06
2018-12-11T17:11:45.428Z,101970.51
2018-12-11T17:14:18.400Z,101969.06
2018-12-11T17:16:54.081Z,101965.63
2018-12-11T17:19:27.215Z,101963.52
2018-12-11T17:21:59.374Z,101972.42
2018-12-11T17:24:40.348Z,101968.34
2018-12-11T17:30:12.311Z,101963.16
2018-12-11T17:35:37.374Z,101972.11
2018-12-11T17:38:15.096Z,101969.95
2018-12-11T17:40:50.188Z,101977.62
2018-12-11T17:43:29.282Z,101974.41
2018-12-11T17:46:06.092Z,101970.78
2018-12-11T17:48:46.705Z,101968.56
2018-12-11T17:51:25.568Z,101976.66
2018-12-11T17:53:59.636Z,101973.71
2018-12-11T17:56:38.733Z,101971.88
2018-12-11T17:59:11.245Z,101974.02
2018-12-11T18:01:57.738Z,101970.21
2018-12-11T18:04:31.206Z,101973.80
2018-12-11T18:07:10.774Z,101972.53
2018-12-11T18:09:49.326Z,101973.45
2018-12-11T18:12:20.433Z,101976.66
2018-12-11T18:14:54.220Z,101987.64
2018-12-11T18:17:34.143Z,101990.78
2018-12-11T18:20:10.004Z,101986.95
2018-12-11T18:22:45.774Z,101985.13
2018-12-11T18:25:24.474Z,101987.34
2018-12-11T18:28:02.352Z,101991.88
2018-12-11T18:30:34.540Z,101997.91
2018-12-11T18:33:11.341Z,101991.73
2018-12-11T18:35:46.228Z,101998.34
2018-12-11T18:38:19.660Z,102003.55
2018-12-11T18:40:58.428Z,102002.22
2018-12-11T18:43:44.062Z,102003.09
2018-12-11T18:46:29.946Z,102003.37
2018-12-11T18:49:09.464Z,102005.45
2018-12-11T18:51:49.525Z,102001.26
2018-12-11T18:54:22.839Z,102000.88
2018-12-11T18:57:10.620Z,102005.02
2018-12-11T18:59:42.877Z,102005.79
2018-12-11T19:02:30.424Z,102007.28
2018-12-11T19:05:03.764Z,102010.98
2018-12-11T19:07:42.985Z,102004.98
2018-12-11T19:10:15.447Z,102015.83
2018-12-11T19:12:49.992Z,102007.27
2018-12-11T19:15:25.674Z,102003.09
2018-12-11T19:18:04.519Z,102004.65
2018-12-11T19:20:39.409Z,101998.64
2018-12-11T19:23:16.190Z,102009.63
2018-12-11T19:25:48.564Z,102008.12
2018-12-11T19:28:19.418Z,102008.73
2018-12-11T19:30:59.225Z,101998.09
2018-12-11T19:33:31.406Z,102006.01
2018-12-11T19:36:04.702Z,101999.60
2018-12-11T19:38:44.033Z,101999.84
2018-12-11T19:41:23.057Z,102001.02
2018-12-11T19:43:57.944Z,102002.37
2018-12-11T19:46:30.994Z,102003.52
2018-12-11T19:49:17.273Z,102004.69
2018-12-11T19:51:50.073Z,102003.76
2018-12-11T19:54:22.264Z,102005.12
2018-12-11T19:57:01.859Z,101991.11
2018-12-11T19:59:36.840Z,101999.80
2018-12-11T20:02:16.584Z,101996.76
2018-12-11T20:04:47.816Z,101998.80
2018-12-11T20:07:27.563Z,101999.46
2018-12-11T20:10:15.742Z,102001.09
2018-12-11T20:13:04.375Z,102001.30
2018-12-11T20:15:37.311Z,102001.17
2018-12-11T20:18:12.845Z,102006.33
2018-12-11T20:20:50.438Z,102001.36
2018-12-11T20:23:28.741Z,102008.33
2018-12-11T20:26:01.294Z,102006.54
2018-12-11T20:28:39.948Z,102007.02
2018-12-11T20:31:30.926Z,102003.55
2018-12-11T20:34:09.824Z,101996.84
2018-12-11T20:36:45.882Z,102000.23
2018-12-11T20:42:18.489Z,102000.69
2018-12-11T20:44:57.862Z,102002.51
2018-12-11T20:47:36.720Z,102006.49
2018-12-11T20:50:12.034Z,102005.22
2018-12-11T20:52:46.688Z,102004.52
2018-12-11T20:55:19.212Z,102003.83
2018-12-11T20:57:57.872Z,102002.31
2018-12-11T21:00:29.870Z,102005.19
2018-12-11T21:03:00.069Z,102011.20
2018-12-11T21:05:32.020Z,102002.84
2018-12-11T21:08:03.920Z,102014.22
2018-12-11T21:10:33.798Z,102010.90
2018-12-11T21:13:12.239Z,102023.11
2018-12-11T21:15:43.602Z,102018.44
2018-12-11T21:18:21.347Z,102018.95
2018-12-11T21:20:52.547Z,102011.91
2018-12-11T21:23:31.006Z,102016.09
2018-12-11T21:26:02.440Z,102025.97
2018-12-11T21:28:42.230Z,102026.91
2018-12-11T21:31:14.717Z,102027.73
2018-12-11T21:33:45.744Z,102026.52
2018-12-11T21:36:32.695Z,102020.14
2018-12-11T21:39:12.368Z,102021.98
2018-12-11T21:41:50.167Z,102021.92
2018-12-11T21:44:23.755Z,102022.09
2018-12-11T21:47:03.633Z,102018.09
2018-12-11T21:49:41.442Z,102015.48
2018-12-11T21:52:20.070Z,102013.28
2018-12-11T21:54:54.993Z,102013.39
2018-12-11T21:57:27.204Z,102008.58
2018-12-11T22:00:07.086Z,102013.84
2018-12-11T22:02:39.529Z,102013.48
2018-12-11T22:05:12.283Z,102012.55
2018-12-11T22:07:45.325Z,102015.86
2018-12-11T22:10:33.771Z,102014.20
2018-12-11T22:13:11.649Z,102007.92
2018-12-11T22:15:43.846Z,102010.34
2018-12-11T22:18:22.728Z,102007.73
2018-12-11T22:21:02.656Z,102009.56
2018-12-11T22:23:35.786Z,102013.79
2018-12-11T22:26:06.797Z,102018.74
2018-12-11T22:28:38.667Z,102015.22
2018-12-11T22:31:09.290Z,102016.70
2018-12-11T22:33:48.105Z,102021.44
2018-12-11T22:36:19.267Z,102017.17
2018-12-11T22:38:57.282Z,102019.81
2018-12-11T22:41:42.830Z,102032.21
2018-12-11T22:44:16.554Z,102028.38
2018-12-11T22:46:53.103Z,102033.15
2018-12-11T22:49:23.677Z,102033.17
2018-12-11T22:52:03.771Z,102032.56
2018-12-11T22:54:50.200Z,102036.44
2018-12-11T22:57:36.128Z,102035.36
2018-12-11T23:00:15.399Z,102037.99
2018-12-11T23:02:47.898Z,102041.45
2018-12-11T23:05:21.830Z,102040.09
2018-12-11T23:10:56.019Z,102045.90
2018-12-11T23:13:34.281Z,102046.11
2018-12-11T23:16:07.046Z,102043.30
2018-12-11T23:18:45.916Z,102041.88
2018-12-11T23:21:18.034Z,102044.23
2018-12-11T23:23:57.664Z,102036.60
2018-12-11T23:26:28.629Z,102043.98
2018-12-11T23:29:00.787Z,102048.67
2018-12-11T23:31:31.599Z,102046.94
2018-12-11T23:34:05.661Z,102045.62
2018-12-11T23:36:45.115Z,102046.79
2018-12-11T23:39:17.452Z,102046.02
2018-12-11T23:41:48.575Z,102048.64
2018-12-11T23:44:27.894Z,102049.14
2018-12-11T23:46:59.228Z,102046.64
2018-12-11T23:49:37.748Z,102044.48
2018-12-11T23:52:09.150Z,102047.03
2018-12-11T23:54:40.168Z,102044.05
2018-12-11T23:57:12.098Z,102042.53
2018-12-11T23:59:50.050Z,102045.45
